Time;durP1;ratioP1;P1;durP2;ratioP2;P2;SDS_P1;SDS_P2;PMS_P1;PMS_P2;Temp;Humidity;BMP_temperature;BMP_pressure;BME280_temperature;BME280_humidity;BME280_pressure;Samples;Min_cycle;Max_cycle;Signal;HPM_P1;HPM_P2
2021/04/21 00:00:17;;;;;;;9.23;2.65;;;9.40;91.70;;;;;;5044230;28;20026;-73
2021/04/21 00:02:46;;;;;;;4.45;2.45;;;9.40;91.80;;;;;;5044122;28;20044;-72
2021/04/21 00:05:13;;;;;;;5.85;2.33;;;9.40;92.10;;;;;;5044060;28;20049;-73
2021/04/21 00:07:40;;;;;;;4.60;2.45;;;9.30;91.90;;;;;;5044157;28;20033;-72
2021/04/21 00:10:08;;;;;;;12.88;2.90;;;9.30;92.10;;;;;;5044226;28;20029;-72
2021/04/21 00:12:34;;;;;;;6.40;2.78;;;9.40;92.20;;;;;;5043897;28;20022;-73
2021/04/21 00:15:00;;;;;;;3.67;2.20;;;9.40;92.30;;;;;;5043967;28;20068;-72
2021/04/21 00:17:27;;;;;;;4.57;2.50;;;9.30;92.40;;;;;;5043968;28;20080;-72
2021/04/21 00:19:55;;;;;;;4.18;2.15;;;9.30;92.30;;;;;;5043860;28;20053;-74
2021/04/21 00:22:23;;;;;;;7.72;2.42;;;9.30;92.70;;;;;;5043663;28;20128;-73
2021/04/21 00:24:51;;;;;;;4.20;2.33;;;9.30;92.30;;;;;;5043665;28;20124;-73
2021/04/21 00:27:24;;;;;;;9.52;2.55;;;9.20;92.50;;;;;;5044570;28;20021;-74
2021/04/21 00:29:55;;;;;;;4.63;2.22;;;9.20;92.40;;;;;;5045041;28;20021;-72
2021/04/21 00:32:23;;;;;;;4.35;2.05;;;9.20;92.50;;;;;;5044916;28;20032;-74
2021/04/21 00:34:50;;;;;;;5.35;2.30;;;9.20;92.20;;;;;;5044516;28;20021;-74
2021/04/21 00:37:18;;;;;;;6.70;2.25;;;9.10;92.30;;;;;;5044661;28;20576;-74
2021/04/21 00:39:45;;;;;;;4.47;2.33;;;9.10;92.40;;;;;;5044758;28;20025;-73
2021/04/21 00:42:23;;;;;;;5.47;2.25;;;9.10;92.70;;;;;;5059997;28;20061;-70
2021/04/21 00:45:12;;;;;;;6.15;2.08;;;9.00;92.80;;;;;;5044496;28;20068;-73
2021/04/21 00:48:13;;;;;;;5.43;2.03;;;8.90;93.50;;;;;;5044612;28;20063;-73
2021/04/21 00:50:49;;;;;;;11.38;2.60;;;8.90;93.40;;;;;;5044210;28;20030;-73
2021/04/21 00:53:22;;;;;;;4.25;2.03;;;8.90;93.40;;;;;;5044512;28;20077;-73
2021/04/21 00:56:21;;;;;;;5.95;2.33;;;8.80;93.50;;;;;;5044532;28;20450;-73
2021/04/21 00:58:52;;;;;;;7.53;2.50;;;8.80;93.70;;;;;;5044578;28;20034;-72
2021/04/21 01:01:21;;;;;;;12.98;2.50;;;8.70;93.80;;;;;;5044354;28;20064;-74
2021/04/21 01:03:51;;;;;;;7.15;2.92;;;8.70;94.00;;;;;;5044589;28;20018;-73
2021/04/21 01:06:26;;;;;;;11.05;2.90;;;8.70;94.10;;;;;;5044263;28;20037;-73
2021/04/21 01:08:56;;;;;;;3.60;2.05;;;8.60;94.40;;;;;;5044664;28;20037;-70
2021/04/21 01:11:26;;;;;;;3.45;1.95;;;8.60;94.30;;;;;;5044476;28;20021;-70
2021/04/21 01:13:56;;;;;;;6.28;2.33;;;8.60;93.90;;;;;;5044261;28;20116;-73
2021/04/21 01:16:24;;;;;;;5.82;1.92;;;8.60;93.90;;;;;;5044316;28;20055;-70
2021/04/21 01:18:53;;;;;;;3.25;1.83;;;8.60;93.60;;;;;;5059426;28;20025;-74
2021/04/21 01:21:31;;;;;;;11.77;2.90;;;8.50;93.70;;;;;;5043740;28;20050;-72
2021/04/21 01:24:28;;;;;;;3.30;1.42;;;8.60;93.60;;;;;;5043941;28;20025;-70
2021/04/21 01:27:08;;;;;;;9.15;1.90;;;8.60;93.60;;;;;;5044152;28;20068;-74
2021/04/21 01:29:46;;;;;;;6.03;2.25;;;8.60;93.60;;;;;;5044127;28;20026;-72
2021/04/21 01:32:28;;;;;;;4.75;1.85;;;8.60;93.40;;;;;;5044123;28;20026;-72
2021/04/21 01:34:55;;;;;;;6.13;1.83;;;8.60;93.20;;;;;;5044199;28;20030;-74
2021/04/21 01:37:26;;;;;;;4.10;1.77;;;8.60;93.40;;;;;;5047703;28;20025;-74
2021/04/21 01:40:07;;;;;;;2.67;1.30;;;8.60;93.20;;;;;;5062975;28;20026;-71
2021/04/21 01:42:36;;;;;;;5.78;2.33;;;8.60;93.30;;;;;;5047539;28;20029;-71
2021/04/21 01:45:02;;;;;;;6.45;2.00;;;8.50;93.00;;;;;;5047304;28;20045;-70
2021/04/21 01:47:28;;;;;;;4.63;2.40;;;8.50;93.60;;;;;;5047180;28;20033;-72
2021/04/21 01:49:58;;;;;;;9.52;2.30;;;8.40;93.50;;;;;;5047233;28;20034;-71
2021/04/21 01:52:43;;;;;;;4.05;1.60;;;8.40;93.80;;;;;;5047262;28;20033;-71
2021/04/21 01:55:41;;;;;;;2.50;1.73;;;8.40;93.90;;;;;;5047181;28;20025;-70
2021/04/21 01:58:11;;;;;;;4.85;2.05;;;8.40;93.80;;;;;;5047379;28;20033;-70
2021/04/21 02:00:41;;;;;;;9.68;2.47;;;8.30;94.00;;;;;;5047286;28;20018;-70
2021/04/21 02:03:24;;;;;;;2.95;1.60;;;8.30;93.90;;;;;;5047012;28;20030;-71
2021/04/21 02:06:08;;;;;;;8.30;1.92;;;8.20;93.90;;;;;;5047260;28;20029;-72
2021/04/21 02:09:12;;;;;;;3.70;1.58;;;8.20;94.00;;;;;;5047129;28;20031;-71
2021/04/21 02:11:43;;;;;;;6.00;2.33;;;8.10;94.30;;;;;;5047038;28;20471;-71
2021/04/21 02:15:06;;;;;;;2.60;1.75;;;8.10;94.80;;;;;;5046913;28;20071;-70
2021/04/21 02:17:46;;;;;;;2.95;1.75;;;8.10;95.40;;;;;;5065375;28;20040;-71
2021/04/21 02:20:34;;;;;;;3.65;1.83;;;8.00;94.70;;;;;;5084267;28;20033;-71
2021/04/21 02:23:27;;;;;;;4.80;1.95;;;8.00;94.80;;;;;;5064879;28;20044;-72
2021/04/21 02:26:21;;;;;;;4.45;1.67;;;8.00;95.10;;;;;;5046988;28;20087;-71
2021/04/21 02:29:02;;;;;;;3.78;1.90;;;7.90;95.50;;;;;;5046748;28;20473;-72
2021/04/21 02:31:50;;;;;;;4.32;2.08;;;7.90;95.50;;;;;;5061825;28;20045;-71
2021/04/21 02:34:43;;;;;;;3.90;1.88;;;7.90;95.60;;;;;;5046602;28;20030;-73
2021/04/21 02:37:35;;;;;;;6.13;1.85;;;7.80;94.80;;;;;;5046638;28;20029;-71
2021/04/21 02:40:13;;;;;;;2.97;1.27;;;7.90;95.70;;;;;;5046542;28;20051;-71
2021/04/21 02:43:09;;;;;;;5.85;1.77;;;7.80;96.00;;;;;;5046406;28;20772;-72
2021/04/21 02:45:55;;;;;;;4.78;2.22;;;7.80;95.60;;;;;;5061550;28;20041;-70
2021/04/21 02:48:24;;;;;;;2.05;1.70;;;7.90;95.70;;;;;;5048740;28;20053;-72
2021/04/21 02:51:06;;;;;;;3.97;2.20;;;7.90;95.80;;;;;;5046066;28;20103;-73
2021/04/21 02:53:42;;;;;;;3.47;1.30;;;7.90;95.90;;;;;;5061491;28;20059;-71
2021/04/21 02:56:32;;;;;;;3.13;1.65;;;7.90;96.40;;;;;;5046332;28;20030;-72
2021/04/21 02:59:16;;;;;;;4.28;1.77;;;7.80;96.70;;;;;;5046028;28;20026;-72
2021/04/21 03:01:54;;;;;;;3.85;2.25;;;7.80;96.90;;;;;;5046259;28;20026;-72
2021/04/21 03:04:51;;;;;;;5.07;1.83;;;7.80;97.30;;;;;;5061295;28;20041;-72
2021/04/21 03:07:53;;;;;;;4.38;2.35;;;7.80;97.50;;;;;;5046101;28;20033;-73
2021/04/21 03:10:22;;;;;;;4.75;2.00;;;7.80;97.80;;;;;;5046161;28;20108;-73
2021/04/21 03:12:57;;;;;;;3.85;1.67;;;7.70;97.60;;;;;;5061370;28;20024;-71
2021/04/21 03:15:26;;;;;;;2.92;1.42;;;7.70;97.50;;;;;;5045950;28;20018;-72
2021/04/21 03:17:53;;;;;;;4.28;1.70;;;7.80;97.00;;;;;;5045856;28;20033;-73
2021/04/21 03:20:21;;;;;;;2.30;1.70;;;7.80;97.20;;;;;;5045987;28;20022;-72
2021/04/21 03:22:57;;;;;;;3.20;1.38;;;7.70;97.40;;;;;;5045855;28;20029;-74
2021/04/21 03:25:37;;;;;;;3.20;1.73;;;7.70;97.90;;;;;;5045377;28;20056;-73
2021/04/21 03:28:07;;;;;;;2.75;1.70;;;7.70;98.20;;;;;;5045554;28;20033;-72
2021/04/21 03:30:34;;;;;;;6.95;2.40;;;7.60;98.50;;;;;;5045260;28;20032;-72
2021/04/21 03:33:30;;;;;;;5.28;1.95;;;7.60;99.20;;;;;;5045606;28;20025;-73
2021/04/21 03:35:59;;;;;;;5.00;1.85;;;7.50;99.60;;;;;;5045190;28;20021;-73
2021/04/21 03:38:25;;;;;;;5.65;2.05;;;7.50;99.90;;;;;;5045230;28;20029;-73
2021/04/21 03:40:52;;;;;;;6.55;1.48;;;7.40;99.60;;;;;;5045358;28;20048;-72
2021/04/21 03:43:19;;;;;;;2.42;1.50;;;7.30;99.50;;;;;;5045425;28;20021;-72
2021/04/21 03:45:47;;;;;;;3.47;2.08;;;7.30;99.10;;;;;;5045233;28;20033;-72
2021/04/21 03:48:14;;;;;;;3.97;1.60;;;7.30;99.50;;;;;;5045258;28;20037;-72
2021/04/21 03:50:41;;;;;;;3.60;1.75;;;7.30;99.20;;;;;;5045129;28;20032;-72
2021/04/21 03:53:09;;;;;;;2.67;1.58;;;7.20;99.60;;;;;;5045110;28;20014;-72
2021/04/21 03:55:36;;;;;;;7.00;2.60;;;7.20;99.70;;;;;;5060339;28;20462;-72
2021/04/21 03:58:09;;;;;;;4.63;1.88;;;;;;;;;;5044492;28;20025;-72
2021/04/21 04:00:39;;;;;;;5.63;2.50;;;;;;;;;;5044963;28;20402;-72
2021/04/21 04:03:09;;;;;;;7.20;2.25;;;;;;;;;;5045012;28;20041;-72
2021/04/21 04:05:40;;;;;;;3.55;1.83;;;;;;;;;;5044731;28;20033;-71
2021/04/21 04:08:09;;;;;;;4.95;2.72;;;;;;;;;;5044966;28;20552;-71
2021/04/21 04:10:35;;;;;;;18.23;2.83;;;;;;;;;;5060158;28;20504;-72
2021/04/21 04:13:05;;;;;;;3.60;2.17;;;;;;;;;;5044591;28;20022;-72
2021/04/21 04:15:32;;;;;;;5.72;2.22;;;;;;;;;;5044769;28;20071;-71
2021/04/21 04:17:58;;;;;;;4.43;2.20;;;;;;;;;;5044650;28;20064;-71
2021/04/21 04:20:26;;;;;;;8.02;2.55;;;7.20;99.80;;;;;;5044455;28;20073;-72
2021/04/21 04:22:52;;;;;;;4.22;2.30;;;6.70;99.90;;;;;;5044662;28;20026;-73
2021/04/21 04:25:19;;;;;;;12.73;2.58;;;6.60;99.90;;;;;;5044723;28;20087;-72
2021/04/21 04:27:45;;;;;;;6.65;2.63;;;6.60;99.90;;;;;;5044820;28;20037;-71
2021/04/21 04:30:12;;;;;;;3.30;1.85;;;6.60;99.90;;;;;;5044588;28;20038;-71
2021/04/21 04:32:43;;;;;;;3.92;2.03;;;6.70;99.90;;;;;;5044588;28;20025;-72
2021/04/21 04:35:11;;;;;;;4.00;1.75;;;6.70;99.90;;;;;;5043243;28;20056;-72
2021/04/21 04:37:39;;;;;;;4.07;2.25;;;6.70;99.90;;;;;;5044271;28;20085;-72
2021/04/21 04:40:14;;;;;;;4.95;2.40;;;6.70;99.90;;;;;;5044498;28;20049;-72
2021/04/21 04:42:39;;;;;;;;;;;6.70;99.90;;;;;;5044806;28;20025;-72
2021/04/21 04:45:07;;;;;;;6.63;3.08;;;6.70;99.90;;;;;;5044742;28;19916;-73
2021/04/21 04:47:43;;;;;;;6.63;3.53;;;6.70;99.90;;;;;;5044969;28;20026;-72
2021/04/21 04:50:13;;;;;;;8.80;4.13;;;6.70;99.90;;;;;;5044793;28;20052;-74
2021/04/21 04:52:42;;;;;;;9.48;4.03;;;6.70;99.90;;;;;;5045357;28;20028;-75
2021/04/21 04:55:10;;;;;;;9.80;4.45;;;6.70;99.90;;;;;;5045029;28;20029;-73
2021/04/21 04:57:41;;;;;;;11.82;4.75;;;6.60;99.90;;;;;;5060556;28;20096;-74
2021/04/21 05:00:16;;;;;;;11.20;4.65;;;6.60;99.90;;;;;;5045157;28;20029;-74
2021/04/21 05:02:57;;;;;;;10.30;4.47;;;6.60;99.90;;;;;;5045351;28;20028;-74
2021/04/21 05:05:24;;;;;;;14.90;5.30;;;6.70;99.90;;;;;;5044999;28;20033;-74
2021/04/21 05:08:02;;;;;;;12.13;5.53;;;6.80;99.90;;;;;;5044792;28;20028;-74
2021/04/21 05:10:39;;;;;;;9.57;5.43;;;6.80;99.90;;;;;;5046402;28;20033;-74
2021/04/21 05:13:08;;;;;;;14.30;6.22;;;6.80;99.90;;;;;;5048713;28;20075;-74
2021/04/21 05:16:00;;;;;;;12.88;5.40;;;6.90;99.90;;;;;;5049011;28;20029;-74
2021/04/21 05:18:44;;;;;;;14.15;6.50;;;6.90;99.90;;;;;;5048706;28;20121;-74
2021/04/21 05:21:41;;;;;;;15.82;7.30;;;7.00;99.90;;;;;;5048410;28;20069;-73
2021/04/21 05:24:15;;;;;;;13.52;6.32;;;7.10;99.90;;;;;;5048721;28;20545;-74
2021/04/21 05:26:43;;;;;;;;;;;7.00;99.90;;;;;;5049178;28;20034;-73
2021/04/21 05:29:47;;;;;;;12.25;5.90;;;7.10;99.90;;;;;;5048239;28;19912;-73
2021/04/21 05:32:28;;;;;;;17.38;6.22;;;7.10;99.90;;;;;;5058019;28;20041;-74
2021/04/21 05:34:56;;;;;;;15.07;6.63;;;7.10;99.90;;;;;;5047770;28;20394;-74
2021/04/21 05:37:59;;;;;;;19.52;7.47;;;7.20;99.90;;;;;;5052177;28;20040;-73
2021/04/21 05:40:54;;;;;;;13.45;7.05;;;7.20;99.90;;;;;;5062062;28;20039;-72
2021/04/21 05:43:50;;;;;;;19.30;6.75;;;7.30;99.90;;;;;;5060270;28;20147;-74
2021/04/21 05:46:31;;;;;;;12.07;7.07;;;7.40;99.90;;;;;;5066723;28;20041;-73
2021/04/21 05:49:19;;;;;;;15.13;6.35;;;7.40;99.90;;;;;;5066054;28;20111;-74
2021/04/21 05:52:04;;;;;;;25.13;7.97;;;7.50;99.90;;;;;;5067538;28;20048;-73
2021/04/21 05:55:00;;;;;;;24.00;7.78;;;7.60;99.90;;;;;;5067221;28;20060;-72
2021/04/21 05:58:04;;;;;;;20.45;8.40;;;7.70;99.90;;;;;;5066214;28;20029;-74
2021/04/21 06:00:58;;;;;;;18.13;7.15;;;7.80;99.90;;;;;;5061023;28;20029;-73
2021/04/21 06:03:25;;;;;;;14.77;7.57;;;7.90;99.90;;;;;;5067477;28;20085;-73
2021/04/21 06:06:01;;;;;;;22.20;6.47;;;8.00;99.90;;;;;;5067331;28;20041;-73
2021/04/21 06:08:29;;;;;;;11.70;6.60;;;8.10;99.90;;;;;;5067826;28;20053;-72
2021/04/21 06:10:55;;;;;;;14.43;6.90;;;8.20;99.90;;;;;;5067171;28;20084;-75
2021/04/21 06:13:26;;;;;;;13.07;6.18;;;8.30;99.90;;;;;;5067209;28;20036;-72
2021/04/21 06:15:52;;;;;;;10.95;6.13;;;8.40;99.90;;;;;;5067206;28;20035;-75
2021/04/21 06:18:21;;;;;;;14.15;5.22;;;8.50;99.90;;;;;;5067111;28;20077;-73
2021/04/21 06:20:47;;;;;;;11.25;5.07;;;8.60;99.90;;;;;;5056117;28;20045;-74
2021/04/21 06:23:24;;;;;;;10.52;5.20;;;8.70;99.90;;;;;;5058083;28;20462;-73
2021/04/21 06:26:03;;;;;;;10.15;4.85;;;8.80;99.90;;;;;;5051888;28;20065;-75
2021/04/21 06:28:29;;;;;;;12.30;5.78;;;9.00;99.90;;;;;;5054155;28;20029;-74
2021/04/21 06:31:07;;;;;;;7.70;4.10;;;9.10;99.90;;;;;;5064985;28;20025;-72
2021/04/21 06:33:41;;;;;;;16.05;5.10;;;9.20;99.90;;;;;;5066602;28;20036;-75
2021/04/21 06:36:09;;;;;;;7.45;4.30;;;9.30;99.90;;;;;;5066741;28;20135;-73
2021/04/21 06:38:38;;;;;;;9.40;4.75;;;9.30;99.90;;;;;;5066490;28;20438;-73
2021/04/21 06:41:04;;;;;;;9.93;4.68;;;9.40;99.90;;;;;;5058279;28;20051;-73
2021/04/21 06:43:34;;;;;;;9.70;4.93;;;9.50;99.90;;;;;;5059253;28;20022;-73
2021/04/21 06:46:01;;;;;;;9.50;5.10;;;9.60;99.90;;;;;;5050703;28;20095;-73
2021/04/21 06:48:36;;;;;;;15.52;6.70;;;9.70;99.90;;;;;;5055935;28;20017;-73
2021/04/21 06:51:22;;;;;;;15.85;7.65;;;9.80;99.90;;;;;;5061041;28;20112;-73
2021/04/21 06:53:49;;;;;;;13.48;6.85;;;9.80;99.90;;;;;;5046483;28;20031;-76
2021/04/21 06:56:16;;;;;;;13.98;7.45;;;9.90;99.90;;;;;;5061763;28;20052;-72
2021/04/21 06:58:42;;;;;;;17.55;6.90;;;10.00;99.90;;;;;;5046245;28;20572;-74
2021/04/21 07:01:10;;;;;;;29.85;8.77;;;10.10;99.90;;;;;;5045974;28;20028;-74
2021/04/21 07:03:35;;;;;;;21.73;8.65;;;10.10;99.90;;;;;;5061340;28;20045;-74
2021/04/21 07:06:02;;;;;;;17.20;7.30;;;10.20;99.90;;;;;;5045771;28;20046;-75
2021/04/21 07:08:33;;;;;;;16.90;9.10;;;10.30;99.90;;;;;;5067872;28;20029;-74
2021/04/21 07:11:01;;;;;;;19.02;8.18;;;10.40;99.90;;;;;;5063147;28;20033;-74
2021/04/21 07:13:48;;;;;;;19.90;8.88;;;10.40;99.90;;;;;;5065858;28;20063;-75
2021/04/21 07:16:27;;;;;;;13.73;7.97;;;10.50;99.90;;;;;;5065938;28;20025;-75
2021/04/21 07:19:13;;;;;;;17.73;7.53;;;10.50;99.90;;;;;;5065887;28;20056;-76
2021/04/21 07:21:41;;;;;;;18.13;8.43;;;10.60;99.90;;;;;;5065422;28;20071;-73
2021/04/21 07:24:11;;;;;;;19.83;8.43;;;10.60;99.90;;;;;;5064364;28;20052;-76
2021/04/21 07:26:42;;;;;;;16.23;7.80;;;10.60;99.90;;;;;;5064404;28;20041;-77
2021/04/21 07:29:15;;;;;;;17.75;8.55;;;10.70;99.90;;;;;;5062332;28;20068;-74
2021/04/21 07:31:42;;;;;;;14.98;8.50;;;10.80;99.90;;;;;;5051409;28;20045;-74
2021/04/21 07:34:12;;;;;;;22.80;9.95;;;10.80;99.90;;;;;;5056378;28;20068;-74
2021/04/21 07:36:48;;;;;;;20.25;9.40;;;10.90;99.90;;;;;;5045621;28;20028;-74
2021/04/21 07:39:15;;;;;;;15.65;8.80;;;11.00;99.90;;;;;;5047817;28;20056;-73
2021/04/21 07:41:41;;;;;;;18.80;8.73;;;11.00;99.90;;;;;;5054172;28;20026;-74
2021/04/21 07:44:32;;;;;;;18.33;8.35;;;11.20;99.90;;;;;;5045189;28;20021;-74
2021/04/21 07:47:06;;;;;;;15.35;7.57;;;11.40;99.90;;;;;;5044615;28;20072;-75
2021/04/21 07:49:33;;;;;;;19.30;8.75;;;11.60;99.90;;;;;;5062919;28;20028;-75
2021/04/21 07:51:59;;;;;;;18.88;8.68;;;11.80;99.90;;;;;;5060568;28;20025;-75
2021/04/21 07:54:26;;;;;;;18.85;8.18;;;12.10;99.90;;;;;;5060532;28;20031;-75
2021/04/21 07:56:58;;;;;;;19.70;8.63;;;12.20;99.90;;;;;;5045257;28;20022;-76
2021/04/21 07:59:25;;;;;;;18.90;8.43;;;12.40;99.90;;;;;;5044881;28;20021;-75
2021/04/21 08:01:52;;;;;;;17.77;9.32;;;12.60;99.90;;;;;;5044904;28;20025;-74
2021/04/21 08:04:21;;;;;;;16.48;8.82;;;12.70;99.90;;;;;;5044929;28;20025;-75
2021/04/21 08:06:49;;;;;;;20.85;10.50;;;12.80;99.90;;;;;;5059370;28;20028;-75
2021/04/21 08:09:16;;;;;;;22.10;10.32;;;12.90;99.90;;;;;;5063786;28;20509;-75
2021/04/21 08:11:43;;;;;;;24.20;11.52;;;12.90;99.90;;;;;;5065173;28;20304;-74
2021/04/21 08:14:10;;;;;;;20.27;10.40;;;12.90;99.90;;;;;;5060864;28;20036;-74
2021/04/21 08:16:37;;;;;;;20.52;10.23;;;12.70;99.90;;;;;;5055009;28;20036;-74
2021/04/21 08:19:23;;;;;;;23.73;11.00;;;12.50;99.90;;;;;;5044844;28;20539;-73
2021/04/21 08:21:49;;;;;;;21.92;9.18;;;12.30;99.90;;;;;;5059920;28;20144;-75
2021/04/21 08:24:18;;;;;;;25.20;8.82;;;12.20;99.90;;;;;;5042792;28;20390;-74
2021/04/21 08:26:49;;;;;;;24.45;8.60;;;12.20;99.90;;;;;;5044063;28;20037;-74
2021/04/21 08:29:17;;;;;;;23.00;8.75;;;12.50;99.90;;;;;;5059667;28;20022;-75
2021/04/21 08:31:53;;;;;;;17.40;8.73;;;12.50;99.90;;;;;;5043562;28;20783;-75
2021/04/21 08:34:19;;;;;;;25.60;10.13;;;12.50;99.90;;;;;;5043867;28;20033;-74
2021/04/21 08:36:50;;;;;;;22.73;9.85;;;12.50;99.90;;;;;;5051160;28;20037;-76
2021/04/21 08:39:17;;;;;;;24.27;9.45;;;12.50;99.90;;;;;;5058513;28;20051;-74
2021/04/21 08:41:44;;;;;;;20.17;9.27;;;12.80;99.90;;;;;;5064241;28;20040;-73
2021/04/21 08:44:11;;;;;;;15.52;9.00;;;13.20;99.90;;;;;;5061952;28;20025;-72
2021/04/21 08:46:38;;;;;;;17.33;8.48;;;13.50;99.90;;;;;;5064972;28;20041;-73
2021/04/21 08:49:05;;;;;;;22.15;9.70;;;13.80;99.90;;;;;;5068541;28;20048;-74
2021/04/21 08:51:32;;;;;;;21.13;9.80;;;14.10;99.90;;;;;;5066785;28;20528;-75
2021/04/21 08:54:06;;;;;;;14.35;8.57;;;14.20;99.90;;;;;;5068665;28;20025;-74
2021/04/21 08:56:35;;;;;;;19.73;9.18;;;14.20;99.90;;;;;;5061528;28;20032;-75
2021/04/21 08:59:03;;;;;;;27.40;9.68;;;14.40;99.90;;;;;;5055635;28;20040;-74
2021/04/21 09:01:30;;;;;;;18.23;9.13;;;14.30;99.90;;;;;;5068576;28;20022;-76
2021/04/21 09:04:09;;;;;;;15.18;8.38;;;14.20;99.90;;;;;;5068571;28;20025;-75
2021/04/21 09:06:36;;;;;;;15.15;8.05;;;13.90;99.90;;;;;;5066823;28;20045;-75
2021/04/21 09:09:02;;;;;;;15.85;7.13;;;13.70;99.90;;;;;;5067031;28;20025;-74
2021/04/21 09:11:29;;;;;;;13.95;7.03;;;13.70;99.90;;;;;;5066411;28;20071;-74
2021/04/21 09:13:55;;;;;;;15.73;7.05;;;13.80;99.90;;;;;;5068068;28;20025;-74
2021/04/21 09:16:21;;;;;;;15.20;6.75;;;13.80;99.90;;;;;;5065719;28;20040;-74
2021/04/21 09:18:47;;;;;;;17.05;7.07;;;13.90;99.90;;;;;;5054653;28;20033;-76
2021/04/21 09:21:23;;;;;;;16.90;7.22;;;14.10;99.90;;;;;;5066293;28;20060;-75
2021/04/21 09:23:49;;;;;;;11.25;5.55;;;14.10;99.90;;;;;;5066602;28;20069;-74
2021/04/21 09:26:22;;;;;;;12.43;6.57;;;13.70;99.90;;;;;;5065838;28;20372;-75
2021/04/21 09:28:54;;;;;;;19.60;6.38;;;13.60;99.90;;;;;;5065390;28;20129;-75
2021/04/21 09:31:25;;;;;;;18.08;6.28;;;13.50;99.90;;;;;;5061751;28;20473;-73
2021/04/21 09:34:10;;;;;;;13.50;6.13;;;13.40;99.90;;;;;;5056096;28;20033;-75
2021/04/21 09:36:41;;;;;;;10.35;5.45;;;13.50;99.90;;;;;;5063294;28;20049;-76
2021/04/21 09:39:16;;;;;;;16.15;5.82;;;13.60;99.90;;;;;;5046387;28;20103;-74
2021/04/21 09:41:43;;;;;;;8.88;3.78;;;13.50;99.90;;;;;;5052182;28;20040;-75
2021/04/21 09:44:28;;;;;;;8.05;4.55;;;13.30;99.90;;;;;;5059764;28;20026;-74
2021/04/21 09:46:53;;;;;;;9.43;4.15;;;13.00;99.90;;;;;;5051199;28;20052;-75
2021/04/21 09:49:40;;;;;;;15.30;5.07;;;12.90;99.90;;;;;;5067688;28;20029;-77
2021/04/21 09:52:11;;;;;;;11.07;4.38;;;13.00;99.90;;;;;;5067562;28;20033;-75
2021/04/21 09:54:42;;;;;;;12.48;4.28;;;13.10;99.90;;;;;;5066571;28;20025;-75
2021/04/21 09:57:10;;;;;;;9.20;4.63;;;13.10;99.90;;;;;;5054259;28;20039;-74
2021/04/21 09:59:37;;;;;;;5.72;3.42;;;12.90;99.90;;;;;;5062296;28;20047;-74
2021/04/21 10:02:29;;;;;;;10.23;3.22;;;12.80;99.90;;;;;;5062053;28;20097;-73
2021/04/21 10:04:55;;;;;;;8.73;3.75;;;12.70;99.90;;;;;;5052512;28;20096;-75
2021/04/21 10:07:21;;;;;;;7.25;3.40;;;12.70;99.90;;;;;;5060548;28;20025;-76
2021/04/21 10:09:49;;;;;;;4.68;3.10;;;12.80;99.90;;;;;;5046963;28;20087;-76
2021/04/21 10:12:25;;;;;;;8.60;3.33;;;12.90;99.90;;;;;;5061792;28;20030;-75
2021/04/21 10:15:12;;;;;;;6.85;3.70;;;13.00;99.90;;;;;;5047282;28;20060;-74
2021/04/21 10:17:39;;;;;;;4.22;2.22;;;13.00;99.90;;;;;;5047109;28;20037;-75
2021/04/21 10:20:11;;;;;;;3.97;1.70;;;13.10;99.90;;;;;;5046791;28;20035;-73
2021/04/21 10:22:41;;;;;;;4.22;1.98;;;13.10;99.90;;;;;;5046948;28;20029;-74
2021/04/21 10:25:08;;;;;;;2.45;1.85;;;13.10;99.90;;;;;;5048805;28;20077;-75
2021/04/21 10:27:34;;;;;;;6.00;2.10;;;13.10;99.90;;;;;;5065516;28;20027;-76
2021/04/21 10:30:06;;;;;;;2.70;1.13;;;13.10;99.90;;;;;;5055477;28;20060;-75
2021/04/21 10:32:33;;;;;;;2.78;1.00;;;13.00;99.90;;;;;;5064852;28;20032;-75
2021/04/21 10:34:59;;;;;;;2.55;1.40;;;13.10;99.90;;;;;;5061973;28;20518;-75
2021/04/21 10:37:25;;;;;;;2.72;1.10;;;13.30;99.90;;;;;;5061775;28;20031;-76
2021/04/21 10:39:56;;;;;;;7.43;1.13;;;13.50;99.90;;;;;;5061833;28;20029;-75
2021/04/21 10:42:24;;;;;;;4.18;1.15;;;13.60;99.90;;;;;;5061237;28;20037;-75
2021/04/21 10:44:52;;;;;;;3.90;0.98;;;13.60;99.90;;;;;;5046531;28;20056;-76
2021/04/21 10:47:24;;;;;;;1.10;0.82;;;13.60;99.90;;;;;;5060769;28;20029;-75
2021/04/21 10:49:51;;;;;;;4.60;1.15;;;13.70;99.90;;;;;;5056945;28;20051;-76
2021/04/21 10:52:33;;;;;;;7.13;1.50;;;13.70;99.90;;;;;;5046565;28;20069;-72
2021/04/21 10:55:06;;;;;;;8.27;1.10;;;13.60;99.90;;;;;;5046073;28;20029;-74
2021/04/21 10:57:43;;;;;;;7.38;1.17;;;13.70;99.90;;;;;;5046075;28;20021;-75
2021/04/21 11:00:10;;;;;;;6.72;0.70;;;13.80;99.90;;;;;;5044812;28;20089;-74
2021/04/21 11:02:41;;;;;;;0.93;0.40;;;13.70;99.90;;;;;;5045909;28;20025;-74
2021/04/21 11:05:08;;;;;;;3.25;0.68;;;13.60;99.90;;;;;;5047041;28;20118;-74
2021/04/21 11:07:35;;;;;;;2.28;0.80;;;13.40;99.90;;;;;;5054527;28;20065;-73
2021/04/21 11:10:01;;;;;;;8.95;0.88;;;13.20;99.90;;;;;;5060279;28;20025;-74
2021/04/21 11:12:53;;;;;;;1.65;0.75;;;12.90;99.90;;;;;;5050592;28;20089;-75
2021/04/21 11:15:41;;;;;;;3.13;0.52;;;12.50;99.90;;;;;;5061479;28;20029;-76
2021/04/21 11:18:10;;;;;;;1.60;0.50;;;12.30;99.90;;;;;;5045648;28;20093;-74
2021/04/21 11:20:48;;;;;;;9.40;0.68;;;12.00;99.90;;;;;;5046171;28;20076;-74
2021/04/21 11:23:56;;;;;;;3.40;0.82;;;11.80;99.90;;;;;;5050152;28;20056;-75
2021/04/21 11:26:25;;;;;;;3.15;0.73;;;11.70;99.90;;;;;;5061270;28;20041;-74
2021/04/21 11:28:59;;;;;;;0.55;0.40;;;11.70;99.90;;;;;;5045919;28;20025;-73
2021/04/21 11:31:43;;;;;;;1.77;0.73;;;11.80;99.90;;;;;;5045724;28;20093;-74
2021/04/21 11:34:18;;;;;;;1.20;0.55;;;11.80;99.90;;;;;;5045533;28;20509;-74
2021/04/21 11:36:52;;;;;;;6.65;0.88;;;11.90;99.90;;;;;;5060919;28;20068;-74
2021/04/21 11:39:43;;;;;;;3.42;1.00;;;12.10;99.90;;;;;;5045477;28;20048;-75
2021/04/21 11:42:33;;;;;;;2.58;0.70;;;12.20;99.90;;;;;;5045462;28;20029;-77
2021/04/21 11:45:02;;;;;;;5.45;0.82;;;12.40;99.90;;;;;;5045173;28;20037;-74
2021/04/21 11:47:48;;;;;;;2.28;0.90;;;12.60;99.90;;;;;;5045158;28;20029;-73
2021/04/21 11:50:18;;;;;;;1.60;0.75;;;12.80;99.90;;;;;;5045593;28;20045;-74
2021/04/21 11:53:09;;;;;;;6.47;0.70;;;13.30;99.90;;;;;;5045403;28;20057;-75
2021/04/21 11:55:54;;;;;;;3.28;0.75;;;13.80;99.90;;;;;;5056303;28;20033;-73
2021/04/21 11:58:29;;;;;;;2.92;0.88;;;13.90;99.90;;;;;;5060683;28;20044;-72
2021/04/21 12:00:59;;;;;;;8.23;0.98;;;13.70;99.90;;;;;;5045348;28;20090;-73
2021/04/21 12:03:28;;;;;;;1.10;0.60;;;13.60;99.90;;;;;;5044979;28;20037;-74
2021/04/21 12:05:59;;;;;;;2.08;0.93;;;13.30;99.90;;;;;;5045004;28;20056;-75
2021/04/21 12:08:29;;;;;;;5.85;0.85;;;13.20;99.90;;;;;;5058683;28;20040;-74
2021/04/21 12:10:57;;;;;;;4.60;0.85;;;13.30;99.90;;;;;;5065085;28;20107;-76
2021/04/21 12:13:27;;;;;;;3.63;1.25;;;13.30;99.90;;;;;;5064576;28;20032;-72
2021/04/21 12:16:07;;;;;;;4.03;0.90;;;13.10;99.90;;;;;;5064649;28;20036;-72
2021/04/21 12:18:34;;;;;;;2.28;0.73;;;12.90;99.90;;;;;;5064402;28;20029;-72
2021/04/21 12:21:02;;;;;;;3.10;1.48;;;12.70;99.90;;;;;;5064168;28;20075;-73
2021/04/21 12:23:33;;;;;;;1.42;0.73;;;12.90;99.90;;;;;;5064713;28;20021;-74
2021/04/21 12:26:00;;;;;;;2.17;0.90;;;13.50;99.90;;;;;;5063261;28;20048;-76
2021/04/21 12:28:26;;;;;;;5.15;1.00;;;14.10;99.90;;;;;;5064641;28;20021;-74
2021/04/21 12:30:55;;;;;;;8.18;1.30;;;14.40;99.90;;;;;;5063638;28;20100;-73
2021/04/21 12:33:23;;;;;;;4.97;1.05;;;14.70;99.90;;;;;;5064787;28;20426;-75
2021/04/21 12:35:55;;;;;;;2.55;0.75;;;15.10;99.90;;;;;;5063127;28;20033;-76
2021/04/21 12:38:32;;;;;;;1.92;0.77;;;15.40;99.90;;;;;;5062705;28;20088;-74
2021/04/21 12:40:59;;;;;;;5.13;1.27;;;15.30;99.90;;;;;;5064628;28;20508;-75
2021/04/21 12:43:27;;;;;;;1.27;0.95;;;15.00;99.90;;;;;;5064809;28;20053;-74
2021/04/21 12:45:53;;;;;;;1.95;0.75;;;14.90;99.90;;;;;;5063469;28;20044;-75
2021/04/21 12:48:27;;;;;;;1.35;0.63;;;14.90;99.90;;;;;;5063288;28;20029;-75
2021/04/21 12:50:56;;;;;;;0.77;0.50;;;14.80;99.90;;;;;;5063845;28;20021;-76
2021/04/21 12:53:32;;;;;;;7.18;0.93;;;14.70;99.90;;;;;;5044589;28;20445;-74
2021/04/21 12:56:10;;;;;;;3.70;0.80;;;14.80;99.90;;;;;;5045322;28;20026;-74
2021/04/21 12:58:39;;;;;;;1.95;0.75;;;14.80;99.90;;;;;;5064201;28;20373;-77
2021/04/21 13:01:08;;;;;;;7.30;1.23;;;14.90;99.90;;;;;;5064578;28;20089;-77
2021/04/21 13:03:34;;;;;;;2.60;1.48;;;14.60;99.90;;;;;;5064414;28;20032;-71
2021/04/21 13:05:59;;;;;;;3.70;2.10;;;14.50;99.90;;;;;;5063424;28;20056;-75
2021/04/21 13:08:27;;;;;;;2.08;1.02;;;14.50;99.90;;;;;;5063287;28;20029;-77
2021/04/21 13:10:57;;;;;;;9.00;1.20;;;14.40;99.90;;;;;;5064503;28;20088;-77
2021/04/21 13:13:25;;;;;;;5.57;1.50;;;13.80;99.90;;;;;;5064227;28;20025;-73
2021/04/21 13:15:51;;;;;;;2.80;1.05;;;13.30;99.90;;;;;;5063887;28;20025;-74
2021/04/21 13:18:17;;;;;;;7.82;0.98;;;13.20;99.90;;;;;;5064529;28;20025;-75
2021/04/21 13:20:50;;;;;;;7.22;1.30;;;12.90;99.90;;;;;;5064266;28;20155;-74
2021/04/21 13:23:16;;;;;;;3.22;0.90;;;12.90;99.90;;;;;;5064384;28;20037;-74